Time;durP1;ratioP1;P1;durP2;ratioP2;P2;SDS_P1;SDS_P2;PMS_P1;PMS_P2;Temp;Humidity;BMP_temperature;BMP_pressure;BME280_temperature;BME280_humidity;BME280_pressure;Samples;Min_cycle;Max_cycle;Signal;HPM_P1;HPM_P2
2021/07/04 00:01:17;;;;;;;6.63;5.33;;;18.20;99.90;;;;;;5057593;28;20686;-77
2021/07/04 00:03:43;;;;;;;6.43;4.97;;;18.20;99.90;;;;;;5059269;28;20200;-76
2021/07/04 00:06:08;;;;;;;5.77;5.17;;;18.20;99.90;;;;;;5095492;28;20179;-76
2021/07/04 00:08:34;;;;;;;6.20;5.53;;;18.20;99.90;;;;;;5077722;28;20187;-76
2021/07/04 00:11:03;;;;;;;6.00;5.50;;;17.90;99.90;;;;;;5095420;28;20179;-76
2021/07/04 00:13:31;;;;;;;7.20;6.20;;;18.00;99.90;;;;;;5077738;28;20203;-75
2021/07/04 00:15:58;;;;;;;6.17;5.60;;;18.00;99.90;;;;;;5077194;28;20180;-75
2021/07/04 00:18:25;;;;;;;6.63;5.50;;;18.00;99.90;;;;;;5095285;28;20638;-76
2021/07/04 00:20:53;;;;;;;8.60;5.87;;;18.00;99.90;;;;;;5104876;22;20227;-73
2021/07/04 00:23:19;;;;;;;5.40;5.00;;;17.90;99.90;;;;;;5113779;28;20172;-72
2021/07/04 00:25:46;;;;;;;5.67;5.23;;;17.90;99.90;;;;;;5115138;28;20229;-72
2021/07/04 00:28:12;;;;;;;6.30;5.33;;;17.80;99.90;;;;;;5114491;28;20191;-72
2021/07/04 00:30:38;;;;;;;6.53;5.07;;;17.90;99.90;;;;;;5085566;28;20203;-72
2021/07/04 00:33:05;;;;;;;5.83;5.33;;;17.90;99.90;;;;;;5076289;28;20180;-72
2021/07/04 00:35:30;;;;;;;5.60;5.20;;;18.00;99.90;;;;;;5094633;28;20202;-72
2021/07/04 00:37:56;;;;;;;5.23;4.83;;;18.00;99.90;;;;;;5094354;28;20164;-72
2021/07/04 00:40:23;;;;;;;7.70;5.00;;;18.10;99.90;;;;;;5076119;28;20184;-72
2021/07/04 00:42:49;;;;;;;6.03;5.53;;;18.10;99.90;;;;;;5093675;28;20177;-72
2021/07/04 00:45:18;;;;;;;6.77;5.47;;;18.10;99.90;;;;;;5075918;28;20179;-72
2021/07/04 00:47:44;;;;;;;5.20;4.80;;;18.10;99.90;;;;;;5093809;28;20164;-72
2021/07/04 00:50:11;;;;;;;6.00;5.50;;;18.00;99.90;;;;;;5094021;28;20196;-72
2021/07/04 00:52:37;;;;;;;6.13;5.53;;;18.00;99.90;;;;;;5075980;28;20182;-72
2021/07/04 00:55:04;;;;;;;6.43;5.83;;;17.90;99.90;;;;;;5094214;28;20196;-72
2021/07/04 00:57:31;;;;;;;5.87;5.37;;;17.90;99.90;;;;;;5093992;28;20651;-72
2021/07/04 00:59:57;;;;;;;6.47;5.63;;;17.90;99.90;;;;;;5093733;28;20200;-72
2021/07/04 01:02:23;;;;;;;6.47;5.87;;;17.90;99.90;;;;;;5093951;28;20183;-72
2021/07/04 01:04:48;;;;;;;7.43;6.83;;;18.00;99.90;;;;;;5093870;28;20168;-72
2021/07/04 01:07:14;;;;;;;7.00;6.37;;;18.00;99.90;;;;;;5093769;28;20200;-72
2021/07/04 01:09:40;;;;;;;6.10;5.60;;;18.00;99.90;;;;;;5076156;28;20199;-72
2021/07/04 01:12:06;;;;;;;8.27;5.63;;;17.90;99.90;;;;;;5092485;28;20172;-73
2021/07/04 01:14:32;;;;;;;6.00;5.40;;;18.00;99.90;;;;;;5093856;28;20193;-72
2021/07/04 01:17:01;;;;;;;6.07;5.57;;;17.90;99.90;;;;;;5075779;28;20536;-72
2021/07/04 01:19:27;;;;;;;6.33;5.47;;;17.90;99.90;;;;;;5093769;28;20649;-72
2021/07/04 01:21:55;;;;;;;6.33;5.67;;;17.90;99.90;;;;;;5093553;28;20184;-72
2021/07/04 01:24:22;;;;;;;6.67;6.03;;;17.90;99.90;;;;;;5093477;28;20168;-72
2021/07/04 01:26:48;;;;;;;7.87;6.30;;;18.00;99.90;;;;;;5093558;28;20175;-72
2021/07/04 01:29:13;;;;;;;9.87;6.17;;;18.00;99.90;;;;;;5093492;28;20177;-71
2021/07/04 01:31:39;;;;;;;8.50;5.60;;;18.00;99.90;;;;;;5093365;28;20200;-73
2021/07/04 01:34:05;;;;;;;6.30;5.60;;;17.90;99.90;;;;;;5093398;28;20220;-72
2021/07/04 01:36:31;;;;;;;6.43;5.83;;;18.00;99.90;;;;;;5093401;28;20172;-72
2021/07/04 01:38:57;;;;;;;10.13;6.70;;;17.90;99.90;;;;;;5093377;28;20174;-72
2021/07/04 01:41:23;;;;;;;6.00;5.50;;;17.90;99.90;;;;;;5093470;28;20199;-72
2021/07/04 01:43:49;;;;;;;6.37;5.77;;;17.90;99.90;;;;;;5093284;28;20180;-72
2021/07/04 01:46:15;;;;;;;6.83;6.13;;;17.90;99.90;;;;;;5093291;28;20188;-72
2021/07/04 01:48:40;;;;;;;7.23;5.80;;;17.90;99.90;;;;;;5093234;28;20255;-72
2021/07/04 01:51:06;;;;;;;6.10;5.50;;;17.90;99.90;;;;;;5093186;28;20561;-72
2021/07/04 01:53:32;;;;;;;6.90;6.33;;;17.90;99.90;;;;;;5092289;28;20184;-72
2021/07/04 01:55:57;;;;;;;6.57;6.07;;;17.80;99.90;;;;;;5093029;28;20174;-73
2021/07/04 01:58:24;;;;;;;6.27;5.67;;;17.80;99.90;;;;;;5093121;28;20222;-72
2021/07/04 02:00:50;;;;;;;6.80;6.20;;;17.90;99.90;;;;;;5074918;28;20569;-73
2021/07/04 02:03:16;;;;;;;7.33;6.63;;;17.80;99.90;;;;;;5093481;28;20172;-72
2021/07/04 02:05:42;;;;;;;6.77;6.17;;;17.90;99.90;;;;;;5093060;28;20169;-72
2021/07/04 02:08:08;;;;;;;7.00;6.40;;;17.90;99.90;;;;;;5093045;28;20186;-72
2021/07/04 02:10:37;;;;;;;7.00;6.40;;;17.90;99.90;;;;;;5074809;28;20202;-73
2021/07/04 02:13:05;;;;;;;7.30;6.60;;;17.90;99.90;;;;;;5092993;28;20183;-72
2021/07/04 02:15:32;;;;;;;7.57;6.90;;;17.80;99.90;;;;;;5092957;28;20198;-72
2021/07/04 02:18:04;;;;;;;7.30;6.57;;;17.60;99.90;;;;;;5092941;28;20168;-72
2021/07/04 02:20:33;;;;;;;7.70;6.70;;;17.50;99.90;;;;;;5092917;28;20209;-72
2021/07/04 02:23:10;;;;;;;7.27;6.60;;;17.50;99.90;;;;;;5092964;28;20172;-72
2021/07/04 02:25:38;;;;;;;8.17;7.07;;;17.60;99.90;;;;;;5092919;28;20189;-72
2021/07/04 02:28:06;;;;;;;7.60;6.80;;;17.70;99.90;;;;;;5079055;28;20999;-73
2021/07/04 02:30:33;;;;;;;8.73;7.37;;;17.80;99.90;;;;;;5082496;28;20201;-72
2021/07/04 02:33:03;;;;;;;14.50;7.77;;;17.80;99.90;;;;;;5086865;28;20177;-72
2021/07/04 02:35:32;;;;;;;9.27;7.33;;;17.60;99.90;;;;;;5090920;28;20188;-72
2021/07/04 02:37:58;;;;;;;7.60;6.90;;;17.60;99.90;;;;;;5092744;28;20164;-73
2021/07/04 02:40:25;;;;;;;9.80;8.13;;;17.70;99.90;;;;;;5092416;28;20184;-72
2021/07/04 02:42:51;;;;;;;8.30;7.50;;;17.70;99.90;;;;;;5090967;28;20165;-73
2021/07/04 02:45:17;;;;;;;11.00;7.50;;;17.80;99.90;;;;;;5091243;28;20200;-73
2021/07/04 02:47:43;;;;;;;7.67;6.87;;;17.80;99.90;;;;;;5090008;28;20196;-73
2021/07/04 02:50:09;;;;;;;7.97;7.10;;;17.70;99.90;;;;;;5089826;28;20234;-73
2021/07/04 02:52:35;;;;;;;8.87;7.10;;;17.70;99.90;;;;;;5089629;28;20720;-73
2021/07/04 02:55:02;;;;;;;8.03;7.23;;;17.70;99.90;;;;;;5090018;28;20608;-73
2021/07/04 02:57:28;;;;;;;6.87;6.27;;;17.80;99.90;;;;;;5090016;28;20259;-73
2021/07/04 02:59:53;;;;;;;6.60;6.00;;;17.80;99.90;;;;;;5089788;28;20274;-73
2021/07/04 03:02:20;;;;;;;7.57;6.87;;;17.80;99.90;;;;;;5089963;28;20191;-73
2021/07/04 03:04:47;;;;;;;8.30;6.20;;;17.90;99.90;;;;;;5090087;28;20168;-72
2021/07/04 03:07:13;;;;;;;8.37;7.47;;;17.80;99.90;;;;;;5093396;28;20229;-73
2021/07/04 03:09:40;;;;;;;8.67;7.83;;;17.70;99.90;;;;;;5093398;28;20650;-73
2021/07/04 03:12:06;;;;;;;9.00;7.60;;;17.60;99.90;;;;;;5093302;28;20172;-73
2021/07/04 03:14:32;;;;;;;8.43;7.60;;;17.60;99.90;;;;;;5093239;28;20270;-73
2021/07/04 03:16:58;;;;;;;8.57;7.77;;;17.70;99.90;;;;;;5093396;28;20239;-72
2021/07/04 03:19:24;;;;;;;7.83;7.13;;;17.70;99.90;;;;;;5074916;28;20756;-73
2021/07/04 03:21:49;;;;;;;8.97;8.27;;;17.60;99.90;;;;;;5077968;28;20688;-72
2021/07/04 03:24:15;;;;;;;8.87;7.20;;;17.60;99.90;;;;;;5095800;28;20179;-72
2021/07/04 03:26:41;;;;;;;10.73;7.97;;;17.50;99.90;;;;;;5094598;28;20677;-72
2021/07/04 03:29:06;;;;;;;8.17;7.37;;;17.50;99.90;;;;;;5095491;28;20191;-72
2021/07/04 03:31:32;;;;;;;8.83;7.07;;;17.60;99.90;;;;;;5095581;28;20269;-72
2021/07/04 03:33:58;;;;;;;8.67;7.83;;;17.70;99.90;;;;;;5094712;28;20192;-73
2021/07/04 03:36:23;;;;;;;9.70;8.10;;;17.60;99.90;;;;;;5095474;28;20171;-73
2021/07/04 03:38:49;;;;;;;8.53;7.73;;;17.50;99.90;;;;;;5095590;28;20221;-72
2021/07/04 03:41:15;;;;;;;8.67;7.63;;;17.70;99.90;;;;;;5095334;28;20195;-72
2021/07/04 03:43:40;;;;;;;9.27;8.47;;;17.70;99.90;;;;;;5077371;28;20219;-73
2021/07/04 03:46:06;;;;;;;10.73;8.63;;;17.70;99.90;;;;;;5095543;28;20180;-72
2021/07/04 03:48:32;;;;;;;8.50;7.70;;;17.70;99.90;;;;;;5095315;28;20236;-72
2021/07/04 03:50:57;;;;;;;9.00;8.10;;;17.80;99.90;;;;;;5095140;28;20219;-72
2021/07/04 03:53:23;;;;;;;8.90;8.10;;;17.80;99.90;;;;;;5077026;28;20170;-73
2021/07/04 03:55:49;;;;;;;9.23;7.60;;;17.80;99.90;;;;;;5095165;28;20231;-72
2021/07/04 03:58:14;;;;;;;8.20;7.40;;;17.80;99.90;;;;;;5095140;28;20179;-74
2021/07/04 04:00:40;;;;;;;7.97;7.27;;;17.80;99.90;;;;;;5092709;28;20315;-73
2021/07/04 04:03:05;;;;;;;8.60;7.77;;;17.80;99.90;;;;;;5094397;28;20243;-73
2021/07/04 04:05:31;;;;;;;8.57;7.87;;;17.80;99.90;;;;;;5077823;28;20191;-72
2021/07/04 04:07:57;;;;;;;9.37;8.33;;;17.80;99.90;;;;;;5076999;28;20175;-72
2021/07/04 04:10:23;;;;;;;12.07;7.90;;;17.80;99.90;;;;;;5076370;28;20207;-73
2021/07/04 04:12:48;;;;;;;9.10;7.97;;;17.70;99.90;;;;;;5094558;28;20176;-72
2021/07/04 04:15:14;;;;;;;9.07;8.27;;;17.80;99.90;;;;;;5094755;28;20192;-72
2021/07/04 04:17:40;;;;;;;8.43;7.73;;;17.70;99.90;;;;;;5093628;28;20178;-72
2021/07/04 04:20:07;;;;;;;8.73;7.60;;;17.60;99.90;;;;;;5094237;28;20227;-72
2021/07/04 04:22:34;;;;;;;8.97;8.27;;;17.60;99.90;;;;;;5056914;28;20238;-73
2021/07/04 04:24:59;;;;;;;9.23;8.43;;;17.70;99.90;;;;;;5074989;28;20192;-73
2021/07/04 04:27:25;;;;;;;10.43;8.30;;;17.70;99.90;;;;;;5091539;28;20225;-73
2021/07/04 04:29:51;;;;;;;9.77;8.77;;;17.60;99.90;;;;;;5092230;28;20196;-73
2021/07/04 04:32:17;;;;;;;8.90;8.00;;;17.70;99.90;;;;;;5092743;28;20243;-73
2021/07/04 04:34:43;;;;;;;8.33;7.53;;;17.70;99.90;;;;;;5093083;28;20195;-73
2021/07/04 04:37:09;;;;;;;9.70;8.63;;;17.70;99.90;;;;;;5092101;28;20175;-73
2021/07/04 04:39:34;;;;;;;10.53;9.53;;;17.70;99.90;;;;;;5091648;28;20595;-72
2021/07/04 04:42:01;;;;;;;11.03;8.60;;;17.70;99.90;;;;;;5091633;28;20179;-73
2021/07/04 04:44:26;;;;;;;9.77;8.87;;;17.70;99.90;;;;;;5091668;28;20760;-73
2021/07/04 04:46:52;;;;;;;9.87;9.00;;;17.70;99.90;;;;;;5091535;28;20171;-73
2021/07/04 04:49:18;;;;;;;9.47;8.50;;;17.70;99.90;;;;;;5091861;28;20253;-72
2021/07/04 04:51:44;;;;;;;10.50;9.27;;;17.70;99.90;;;;;;5092562;28;20246;-73
2021/07/04 04:54:10;;;;;;;9.40;8.53;;;17.70;99.90;;;;;;5074454;28;20757;-73
2021/07/04 04:56:35;;;;;;;9.47;8.50;;;17.70;99.90;;;;;;5091463;28;20163;-73
2021/07/04 04:59:02;;;;;;;9.27;8.00;;;17.60;99.90;;;;;;5087522;28;20203;-73
2021/07/04 05:01:29;;;;;;;10.00;9.00;;;17.70;99.90;;;;;;5091195;28;20211;-72
2021/07/04 05:03:56;;;;;;;8.17;7.23;;;17.60;99.90;;;;;;5091205;28;20168;-73
2021/07/04 05:06:22;;;;;;;8.60;7.57;;;17.40;99.90;;;;;;5090993;28;20177;-73
2021/07/04 05:08:48;;;;;;;7.93;7.17;;;17.30;99.90;;;;;;5070469;28;20185;-73
2021/07/04 05:11:13;;;;;;;8.20;7.53;;;17.30;99.90;;;;;;5093807;28;20224;-72
2021/07/04 05:13:39;;;;;;;9.20;8.40;;;17.20;99.90;;;;;;5075132;28;20266;-72
2021/07/04 05:16:06;;;;;;;9.83;8.97;;;17.20;99.90;;;;;;5091911;28;20192;-72
2021/07/04 05:18:33;;;;;;;10.23;9.23;;;17.20;99.90;;;;;;5091845;28;20176;-73
2021/07/04 05:20:59;;;;;;;9.63;8.83;;;17.30;99.90;;;;;;5091843;28;20230;-73
2021/07/04 05:23:25;;;;;;;11.93;8.97;;;17.30;99.90;;;;;;5092158;28;20176;-72
2021/07/04 05:25:53;;;;;;;9.90;9.00;;;17.30;99.90;;;;;;5087089;28;20176;-72
2021/07/04 05:28:19;;;;;;;9.30;8.50;;;17.30;99.90;;;;;;5082544;28;20658;-73
2021/07/04 05:30:45;;;;;;;9.70;8.80;;;17.50;99.90;;;;;;5091446;28;20209;-73
2021/07/04 05:33:10;;;;;;;9.33;8.07;;;17.50;99.90;;;;;;5072506;28;20187;-73
2021/07/04 05:35:37;;;;;;;8.43;7.73;;;17.50;99.90;;;;;;5089320;28;20240;-73
2021/07/04 05:38:02;;;;;;;10.63;7.93;;;17.50;99.90;;;;;;5091604;28;20182;-72
2021/07/04 05:40:28;;;;;;;8.13;7.30;;;17.60;99.90;;;;;;5092396;28;20192;-72
2021/07/04 05:42:54;;;;;;;8.10;7.40;;;17.70;99.90;;;;;;5075112;28;20213;-72
2021/07/04 05:45:24;;;;;;;8.47;7.37;;;17.80;99.90;;;;;;5086790;28;20187;-72
2021/07/04 05:47:50;;;;;;;10.50;8.00;;;17.80;99.90;;;;;;5086183;28;20206;-73
2021/07/04 05:50:17;;;;;;;8.20;7.40;;;17.90;99.90;;;;;;5053344;28;20214;-73
2021/07/04 05:52:42;;;;;;;7.23;5.53;;;17.90;99.90;;;;;;5078988;28;20305;-73
2021/07/04 05:55:09;;;;;;;6.67;6.07;;;17.90;99.90;;;;;;5091590;28;20273;-73
2021/07/04 05:57:34;;;;;;;5.73;5.33;;;17.90;99.90;;;;;;5091561;28;20663;-72
2021/07/04 06:00:00;;;;;;;5.77;5.27;;;17.90;99.90;;;;;;5091443;28;20329;-72
2021/07/04 06:02:26;;;;;;;6.17;5.60;;;18.00;99.90;;;;;;5089209;28;20183;-73
2021/07/04 06:04:51;;;;;;;5.83;5.33;;;18.10;99.90;;;;;;5072505;28;20186;-72
2021/07/04 06:07:17;;;;;;;5.43;4.93;;;18.10;99.90;;;;;;5087539;28;20262;-72
2021/07/04 06:09:43;;;;;;;5.67;5.17;;;18.30;99.90;;;;;;5090173;28;20207;-73
2021/07/04 06:12:08;;;;;;;7.13;5.33;;;18.40;99.90;;;;;;5090957;28;20735;-72
2021/07/04 06:14:34;;;;;;;5.50;5.07;;;18.50;99.90;;;;;;5072970;28;20232;-72
2021/07/04 06:17:00;;;;;;;5.33;4.93;;;18.60;99.90;;;;;;5090237;28;20182;-71
2021/07/04 06:19:25;;;;;;;6.10;5.30;;;18.60;99.90;;;;;;5090542;28;20670;-72
2021/07/04 06:21:51;;;;;;;5.40;5.00;;;18.70;99.90;;;;;;5090281;28;20227;-72
2021/07/04 06:24:17;;;;;;;5.33;4.83;;;18.80;99.90;;;;;;5088843;28;20233;-72
2021/07/04 06:26:42;;;;;;;6.13;4.87;;;18.80;99.90;;;;;;5089466;28;20184;-73
2021/07/04 06:29:08;;;;;;;5.07;4.57;;;18.80;99.90;;;;;;5090206;28;20604;-72
2021/07/04 06:31:34;;;;;;;5.13;4.13;;;18.60;99.90;;;;;;5089998;28;20235;-73
2021/07/04 06:33:59;;;;;;;5.93;4.80;;;18.60;99.90;;;;;;5087991;28;20193;-73
2021/07/04 06:39:01;;;;;;;5.73;5.27;;;18.40;99.90;;;;;;5096637;28;20215;-77
2021/07/04 06:41:27;;;;;;;8.20;5.50;;;18.30;99.90;;;;;;5105021;28;20172;-76
2021/07/04 06:43:53;;;;;;;5.73;5.07;;;18.10;99.90;;;;;;5115460;28;20190;-77
2021/07/04 06:46:18;;;;;;;5.30;4.90;;;18.20;99.90;;;;;;5104313;28;20203;-73
2021/07/04 06:48:44;;;;;;;5.47;5.07;;;18.30;99.90;;;;;;5087562;28;20204;-77
2021/07/04 06:51:10;;;;;;;4.87;4.47;;;18.30;99.90;;;;;;5094747;28;20183;-77
2021/07/04 06:53:36;;;;;;;10.53;4.37;;;18.40;99.90;;;;;;5095590;28;20748;-77
2021/07/04 06:56:03;;;;;;;4.63;4.23;;;18.50;99.90;;;;;;5075825;28;20191;-75
2021/07/04 06:58:29;;;;;;;5.17;4.70;;;18.60;99.90;;;;;;5094153;28;20581;-75
2021/07/04 07:00:54;;;;;;;5.70;5.30;;;18.70;99.90;;;;;;5094175;28;20188;-77
2021/07/04 07:03:20;;;;;;;7.23;5.07;;;18.50;99.90;;;;;;5094298;28;20202;-77
2021/07/04 07:05:46;;;;;;;5.70;4.80;;;18.50;99.90;;;;;;5090699;28;20172;-77
2021/07/04 07:08:11;;;;;;;5.27;4.77;;;18.50;99.90;;;;;;5093369;28;20222;-75
2021/07/04 07:10:37;;;;;;;5.23;4.83;;;18.50;99.90;;;;;;5090367;28;20226;-77
2021/07/04 07:13:04;;;;;;;4.93;4.47;;;18.50;99.90;;;;;;5080147;28;20185;-77
2021/07/04 07:15:29;;;;;;;5.67;5.03;;;18.60;99.90;;;;;;5087061;28;20222;-77
2021/07/04 07:17:55;;;;;;;5.33;4.93;;;18.60;99.90;;;;;;5068477;28;20290;-77
2021/07/04 07:20:21;;;;;;;5.90;4.30;;;18.60;99.90;;;;;;5086752;28;20211;-74
2021/07/04 07:22:47;;;;;;;4.97;4.60;;;18.70;99.90;;;;;;5086339;28;20252;-77
2021/07/04 07:25:13;;;;;;;5.13;4.20;;;18.80;99.90;;;;;;5091298;28;20180;-74
2021/07/04 07:27:39;;;;;;;4.87;4.10;;;18.90;99.90;;;;;;5087968;28;20200;-77
2021/07/04 07:30:07;;;;;;;5.13;4.63;;;19.00;99.90;;;;;;5088756;28;20177;-74
2021/07/04 07:32:33;;;;;;;8.20;5.10;;;19.10;99.90;;;;;;5083784;28;20226;-77
2021/07/04 07:34:59;;;;;;;5.13;4.63;;;19.10;99.90;;;;;;5065295;28;20217;-77
2021/07/04 07:37:26;;;;;;;5.10;4.67;;;19.10;99.90;;;;;;5081733;28;20215;-76
2021/07/04 07:39:52;;;;;;;6.30;4.20;;;19.20;99.90;;;;;;5083577;28;20161;-75
2021/07/04 07:42:18;;;;;;;4.67;4.30;;;19.20;99.90;;;;;;5087456;28;20176;-76
2021/07/04 07:44:44;;;;;;;5.00;4.60;;;19.10;99.90;;;;;;5083053;28;20177;-76
2021/07/04 07:47:10;;;;;;;5.10;4.57;;;19.20;99.90;;;;;;5071336;28;20207;-76
2021/07/04 07:49:35;;;;;;;4.37;4.07;;;19.30;99.90;;;;;;5069568;28;20188;-75
2021/07/04 07:52:02;;;;;;;4.87;4.47;;;19.30;99.90;;;;;;5091337;28;20548;-76
2021/07/04 07:54:28;;;;;;;4.50;4.20;;;19.20;99.90;;;;;;5087579;28;20208;-76
2021/07/04 07:56:54;;;;;;;4.80;4.40;;;19.20;99.90;;;;;;5092861;28;20203;-76
2021/07/04 07:59:20;;;;;;;5.07;4.53;;;19.30;99.90;;;;;;5091406;28;20263;-76
2021/07/04 08:01:47;;;;;;;4.60;4.10;;;19.40;99.90;;;;;;5090169;28;20255;-76
2021/07/04 08:04:12;;;;;;;4.60;4.20;;;19.40;99.90;;;;;;5091940;28;20184;-76
2021/07/04 08:06:39;;;;;;;4.57;4.13;;;19.30;99.90;;;;;;5087973;28;20188;-76
2021/07/04 08:09:04;;;;;;;5.10;4.60;;;19.30;99.90;;;;;;5088973;28;20184;-76
2021/07/04 08:11:30;;;;;;;4.77;4.37;;;19.40;99.90;;;;;;5089133;28;20631;-77
2021/07/04 08:13:56;;;;;;;4.73;4.37;;;19.50;99.90;;;;;;5071725;28;20181;-76
2021/07/04 08:16:22;;;;;;;4.67;4.27;;;19.40;99.90;;;;;;5082010;28;20165;-77
2021/07/04 08:18:47;;;;;;;5.03;4.47;;;19.30;99.90;;;;;;5070928;28;20206;-77
2021/07/04 08:21:13;;;;;;;5.83;4.53;;;19.40;99.90;;;;;;5083455;28;20164;-74
2021/07/04 08:23:39;;;;;;;4.77;4.37;;;19.50;99.90;;;;;;5074698;28;20260;-77
2021/07/04 08:26:04;;;;;;;4.63;4.33;;;19.50;99.90;;;;;;5074928;28;20266;-77
2021/07/04 08:28:30;;;;;;;5.33;4.77;;;19.50;99.90;;;;;;5093863;28;20234;-77
2021/07/04 08:30:56;;;;;;;4.70;4.30;;;19.60;99.90;;;;;;5092485;28;20176;-77
2021/07/04 08:33:22;;;;;;;4.43;4.03;;;19.50;99.90;;;;;;5075392;28;20172;-77
2021/07/04 08:35:48;;;;;;;8.60;4.77;;;19.60;99.90;;;;;;5073733;28;20315;-72
2021/07/04 08:38:14;;;;;;;4.90;4.50;;;19.70;99.90;;;;;;5092792;28;20700;-77
2021/07/04 08:40:40;;;;;;;4.70;4.30;;;19.80;99.90;;;;;;5074694;28;20173;-77
2021/07/04 08:43:05;;;;;;;4.93;4.40;;;19.80;99.90;;;;;;5087947;28;20697;-78
2021/07/04 08:45:39;;;;;;;5.00;4.60;;;19.90;99.90;;;;;;5092724;28;20654;-77
2021/07/04 08:48:06;;;;;;;5.63;4.30;;;20.00;99.90;;;;;;5074543;28;20282;-77
2021/07/04 08:50:33;;;;;;;4.67;4.27;;;20.00;99.90;;;;;;5092502;28;20581;-77
2021/07/04 08:53:00;;;;;;;5.10;4.50;;;20.10;99.90;;;;;;5075893;28;20173;-77
2021/07/04 08:55:27;;;;;;;4.57;4.17;;;20.10;99.90;;;;;;5092818;28;20195;-77
2021/07/04 08:57:57;;;;;;;5.17;4.73;;;20.10;99.90;;;;;;5074344;28;20192;-77
2021/07/04 09:00:24;;;;;;;4.83;3.90;;;20.10;99.90;;;;;;5095120;28;20165;-77
2021/07/04 09:02:50;;;;;;;4.27;3.97;;;20.10;99.90;;;;;;5094089;28;20176;-77
2021/07/04 09:05:16;;;;;;;4.50;4.20;;;20.10;99.90;;;;;;5093672;28;20172;-77
2021/07/04 09:07:43;;;;;;;4.53;4.13;;;20.10;99.90;;;;;;5094537;28;20189;-77
2021/07/04 09:10:18;;;;;;;4.10;3.80;;;19.90;99.90;;;;;;5094171;28;20616;-77
2021/07/04 09:12:50;;;;;;;3.97;3.67;;;20.00;99.90;;;;;;5076188;28;20176;-77
2021/07/04 09:15:22;;;;;;;4.40;4.10;;;20.10;99.90;;;;;;5075670;28;20200;-77
2021/07/04 09:17:49;;;;;;;4.63;4.27;;;20.10;99.90;;;;;;5075912;28;20192;-77
2021/07/04 09:20:17;;;;;;;4.97;4.50;;;20.20;99.90;;;;;;5075659;28;20191;-77
2021/07/04 09:22:53;;;;;;;8.80;4.27;;;20.20;99.90;;;;;;5094429;28;20543;-77
2021/07/04 09:25:29;;;;;;;4.07;3.77;;;20.00;99.90;;;;;;5094480;28;20172;-77
2021/07/04 09:28:10;;;;;;;4.20;3.87;;;20.10;99.90;;;;;;5087041;28;20262;-77
2021/07/04 09:30:47;;;;;;;5.07;3.87;;;20.20;99.90;;;;;;5091909;28;20195;-77
2021/07/04 09:33:18;;;;;;;5.73;3.60;;;20.30;99.90;;;;;;5091010;28;20187;-77
2021/07/04 09:35:57;;;;;;;4.00;3.73;;;20.40;99.90;;;;;;5069482;28;20287;-76
2021/07/04 09:38:25;;;;;;;4.43;4.03;;;20.50;99.90;;;;;;5071160;28;20203;-76
2021/07/04 09:40:52;;;;;;;4.37;3.97;;;20.50;99.90;;;;;;5092304;28;20192;-76
2021/07/04 09:43:18;;;;;;;3.60;3.30;;;20.50;99.90;;;;;;5075059;28;20165;-76
2021/07/04 09:45:51;;;;;;;4.37;4.07;;;20.50;99.90;;;;;;5093296;28;20179;-76
2021/07/04 09:48:40;;;;;;;5.47;4.07;;;20.50;99.90;;;;;;5092718;28;20196;-76
2021/07/04 09:51:19;;;;;;;3.80;3.50;;;20.60;99.90;;;;;;5092980;28;20194;-76
2021/07/04 09:54:07;;;;;;;3.90;3.70;;;20.60;99.90;;;;;;5075347;28;20561;-76
2021/07/04 09:56:35;;;;;;;5.73;4.70;;;20.60;99.90;;;;;;5080036;28;20173;-76
2021/07/04 09:59:05;;;;;;;4.90;4.60;;;20.70;99.90;;;;;;5075001;28;20631;-76
2021/07/04 10:01:42;;;;;;;4.10;3.70;;;20.80;99.90;;;;;;5091206;28;20156;-76
2021/07/04 10:04:31;;;;;;;3.63;3.33;;;20.90;99.90;;;;;;5086411;28;20171;-76
2021/07/04 10:06:59;;;;;;;3.17;2.97;;;21.00;99.90;;;;;;5093390;28;20594;-76
2021/07/04 10:09:25;;;;;;;4.20;3.90;;;21.00;99.90;;;;;;5074941;28;20172;-76
2021/07/04 10:11:52;;;;;;;3.37;3.07;;;21.10;99.90;;;;;;5093268;28;20172;-75
2021/07/04 10:14:18;;;;;;;3.27;3.00;;;21.10;99.90;;;;;;5074886;28;20262;-76
2021/07/04 10:16:46;;;;;;;3.90;3.50;;;21.00;99.90;;;;;;5078240;28;20175;-76
2021/07/04 10:19:21;;;;;;;2.97;2.77;;;21.00;99.90;;;;;;5079117;28;20172;-76
2021/07/04 10:21:57;;;;;;;3.83;3.53;;;21.10;99.90;;;;;;5097129;28;20178;-76
2021/07/04 10:24:23;;;;;;;3.50;3.30;;;21.10;99.90;;;;;;5096396;28;20217;-75
2021/07/04 10:26:49;;;;;;;3.47;3.27;;;21.10;99.90;;;;;;5096880;28;20298;-76
2021/07/04 10:29:19;;;;;;;3.60;3.30;;;21.00;99.90;;;;;;5097028;28;20188;-75
2021/07/04 10:31:44;;;;;;;3.70;3.40;;;21.00;99.90;;;;;;5092440;28;20173;-75
2021/07/04 10:34:15;;;;;;;3.63;3.33;;;21.10;99.90;;;;;;5076101;28;20204;-75
2021/07/04 10:36:58;;;;;;;4.43;4.10;;;21.20;99.90;;;;;;5094628;28;20176;-75
2021/07/04 10:39:34;;;;;;;4.13;3.83;;;21.30;99.90;;;;;;5094753;28;20313;-76
2021/07/04 10:42:11;;;;;;;4.40;4.10;;;21.30;99.90;;;;;;5094389;28;20172;-76
2021/07/04 10:44:50;;;;;;;4.43;4.13;;;21.30;99.90;;;;;;5076441;28;20183;-76
2021/07/04 10:47:17;;;;;;;5.20;4.80;;;21.30;99.90;;;;;;5094476;28;20192;-76
2021/07/04 10:49:48;;;;;;;4.53;4.13;;;21.40;99.90;;;;;;5094578;28;20172;-76
2021/07/04 10:52:15;;;;;;;4.33;4.03;;;21.30;99.90;;;;;;5075523;28;20182;-76
2021/07/04 10:54:44;;;;;;;4.17;3.87;;;21.40;99.90;;;;;;5075659;28;20294;-76
2021/07/04 10:57:30;;;;;;;4.50;4.10;;;21.50;99.90;;;;;;5093815;28;20200;-76
2021/07/04 11:00:02;;;;;;;4.10;3.80;;;21.50;99.90;;;;;;5094279;28;20205;-75
2021/07/04 11:02:42;;;;;;;6.07;3.57;;;21.40;99.90;;;;;;5094396;28;20304;-76
2021/07/04 11:05:28;;;;;;;3.90;3.60;;;21.50;99.90;;;;;;5076388;28;20210;-76
2021/07/04 11:07:53;;;;;;;3.20;3.00;;;21.60;99.90;;;;;;5077351;28;20200;-77
2021/07/04 11:10:25;;;;;;;3.73;3.53;;;21.80;99.90;;;;;;5096490;28;20196;-76
2021/07/04 11:12:56;;;;;;;3.73;3.43;;;21.90;99.90;;;;;;5096220;28;20180;-76
2021/07/04 11:15:22;;;;;;;3.43;3.07;;;22.10;99.90;;;;;;5077190;28;20283;-77
2021/07/04 11:18:02;;;;;;;4.57;3.23;;;22.10;99.90;;;;;;5077828;28;20283;-77
2021/07/04 11:20:40;;;;;;;3.63;3.33;;;22.10;99.90;;;;;;5096204;28;20523;-77
2021/07/04 11:23:08;;;;;;;3.90;3.60;;;22.00;99.90;;;;;;5096011;28;20635;-76
2021/07/04 11:25:46;;;;;;;3.20;2.97;;;22.00;99.90;;;;;;5094881;28;20175;-76
2021/07/04 11:28:20;;;;;;;3.30;3.00;;;22.10;99.90;;;;;;5095838;28;20211;-77
2021/07/04 11:30:50;;;;;;;3.23;3.03;;;22.10;99.90;;;;;;5095786;28;20172;-77
2021/07/04 11:33:22;;;;;;;3.33;3.03;;;22.20;99.90;;;;;;5095725;28;20271;-77
2021/07/04 11:35:48;;;;;;;3.00;2.80;;;22.40;99.90;;;;;;5096086;28;20299;-77
2021/07/04 11:38:19;;;;;;;3.47;2.70;;;22.60;99.90;;;;;;5095456;28;20207;-77
2021/07/04 11:40:46;;;;;;;2.97;2.77;;;22.50;99.90;;;;;;5076761;28;20226;-76
2021/07/04 11:43:32;;;;;;;4.13;2.70;;;22.50;99.90;;;;;;5092200;28;20200;-76
2021/07/04 11:46:01;;;;;;;2.83;2.63;;;22.50;99.90;;;;;;5095575;28;20223;-77
2021/07/04 11:49:03;;;;;;;2.67;2.47;;;22.50;99.90;;;;;;5095505;28;20283;-77
2021/07/04 11:51:50;;;;;;;2.87;2.67;;;22.70;99.90;;;;;;5019733;28;20193;-75
2021/07/04 11:54:21;;;;;;;3.83;2.63;;;22.60;99.90;;;;;;5071023;28;21059;-75
2021/07/04 11:56:53;;;;;;;3.10;2.90;;;22.50;99.90;;;;;;5075527;28;20171;-76
2021/07/04 11:59:23;;;;;;;3.60;3.30;;;22.50;99.90;;;;;;5093207;28;20179;-76
2021/07/04 12:01:52;;;;;;;3.10;2.80;;;22.60;99.90;;;;;;5090586;28;20160;-76
2021/07/04 12:04:28;;;;;;;3.43;2.70;;;22.50;99.90;;;;;;5075313;28;20286;-76
2021/07/04 12:07:04;;;;;;;2.80;2.60;;;22.60;99.90;;;;;;5093800;28;20453;-76
2021/07/04 12:09:53;;;;;;;2.80;2.60;;;22.70;99.90;;;;;;5093778;28;20650;-76
2021/07/04 12:12:19;;;;;;;3.13;2.90;;;22.80;99.90;;;;;;5092308;28;20173;-77
2021/07/04 12:14:47;;;;;;;2.70;2.50;;;22.80;99.90;;;;;;5092799;28;20196;-77
2021/07/04 12:17:32;;;;;;;3.20;2.83;;;22.70;99.90;;;;;;5093079;28;20191;-77
2021/07/04 12:20:03;;;;;;;3.00;2.73;;;22.70;99.90;;;;;;5094604;28;20191;-77
2021/07/04 12:22:32;;;;;;;2.53;2.33;;;22.70;99.90;;;;;;5075497;28;20169;-77
2021/07/04 12:25:00;;;;;;;2.70;2.50;;;22.70;99.90;;;;;;5094758;28;20177;-77
2021/07/04 12:27:40;;;;;;;2.80;2.60;;;22.70;99.90;;;;;;5076578;28;20196;-77
2021/07/04 12:30:09;;;;;;;2.53;2.37;;;22.70;99.90;;;;;;5094880;28;20707;-77
2021/07/04 12:32:44;;;;;;;2.93;2.63;;;22.60;99.90;;;;;;5076441;28;20631;-77
2021/07/04 12:35:27;;;;;;;3.00;2.70;;;22.60;99.90;;;;;;5094501;28;20692;-77
2021/07/04 12:37:57;;;;;;;2.90;2.70;;;22.60;99.90;;;;;;5118993;22;20212;-75
2021/07/04 12:40:30;;;;;;;2.40;2.30;;;22.70;99.90;;;;;;5055578;28;20260;-73
2021/07/04 12:43:11;;;;;;;2.50;2.30;;;22.70;99.90;;;;;;5074085;28;20199;-73
2021/07/04 12:45:44;;;;;;;2.33;2.20;;;22.80;99.90;;;;;;5073096;28;20169;-73
2021/07/04 12:48:11;;;;;;;2.70;2.50;;;22.80;99.90;;;;;;5074126;28;20239;-73
2021/07/04 12:51:00;;;;;;;2.43;2.33;;;22.70;99.90;;;;;;5073914;28;20251;-73
2021/07/04 12:53:42;;;;;;;3.00;2.70;;;22.50;99.90;;;;;;5074220;28;20583;-73